createdAt,value
2022-12-05T00:00:18.273Z,5.00
2022-12-05T00:01:22.511Z,5.00
2022-12-05T00:02:24.763Z,5.00
2022-12-05T00:03:27.157Z,5.43
2022-12-05T00:04:29.444Z,5.00
2022-12-05T00:05:31.708Z,5.13
2022-12-05T00:06:35.282Z,5.43
2022-12-05T00:07:37.668Z,5.57
2022-12-05T00:08:40.141Z,5.90
2022-12-05T00:09:42.327Z,5.45
2022-12-05T00:10:44.610Z,5.35
2022-12-05T00:11:47.030Z,5.40
2022-12-05T00:12:49.562Z,5.57
2022-12-05T00:13:54.050Z,5.45
2022-12-05T00:14:56.136Z,5.72
2022-12-05T00:15:58.232Z,5.45
2022-12-05T00:17:00.492Z,4.85
2022-12-05T00:18:02.695Z,5.30
2022-12-05T00:19:06.329Z,4.72
2022-12-05T00:20:09.791Z,5.22
2022-12-05T00:21:20.760Z,5.15
2022-12-05T00:22:23.015Z,5.93
2022-12-05T00:23:25.163Z,5.68
2022-12-05T00:24:27.327Z,5.90
2022-12-05T00:25:29.945Z,5.85
2022-12-05T00:26:33.078Z,6.03
2022-12-05T00:27:35.792Z,6.30
2022-12-05T00:28:38.864Z,5.60
2022-12-05T00:29:40.956Z,6.38
2022-12-05T00:30:43.699Z,6.65
2022-12-05T00:31:46.010Z,6.20
2022-12-05T00:32:48.136Z,6.00
2022-12-05T00:33:51.415Z,5.97
2022-12-05T00:34:53.523Z,6.05
2022-12-05T00:35:55.649Z,6.30
2022-12-05T00:36:57.917Z,6.40
2022-12-05T00:38:00.206Z,6.25
2022-12-05T00:39:07.648Z,6.65
2022-12-05T00:40:10.533Z,6.15
2022-12-05T00:41:15.225Z,6.43
2022-12-05T00:42:17.501Z,6.70
2022-12-05T00:43:19.667Z,6.03
2022-12-05T00:44:21.868Z,6.10
2022-12-05T00:45:24.062Z,6.38
2022-12-05T00:46:28.437Z,6.38
2022-12-05T00:47:30.775Z,6.55
2022-12-05T00:48:33.286Z,6.60
2022-12-05T00:49:35.447Z,6.50
2022-12-05T00:50:37.598Z,6.25
2022-12-05T00:51:42.103Z,6.70
2022-12-05T00:52:44.258Z,6.55
2022-12-05T00:53:47.054Z,6.15
2022-12-05T00:54:49.263Z,6.90
2022-12-05T00:55:51.423Z,6.50
2022-12-05T00:56:56.177Z,6.93
2022-12-05T00:57:58.300Z,6.40
2022-12-05T00:59:02.263Z,6.57
2022-12-05T01:00:06.088Z,6.78
2022-12-05T01:01:11.067Z,7.25
2022-12-05T01:02:13.248Z,7.30
2022-12-05T01:03:15.396Z,6.53
2022-12-05T01:04:21.011Z,7.35
2022-12-05T01:05:23.134Z,7.43
2022-12-05T01:06:26.843Z,6.80
2022-12-05T01:07:29.020Z,7.40
2022-12-05T01:08:31.837Z,6.95
2022-12-05T01:09:33.947Z,6.82
2022-12-05T01:10:36.113Z,7.20
2022-12-05T01:11:41.391Z,7.25
2022-12-05T01:12:43.931Z,7.15
2022-12-05T01:13:46.652Z,6.55
2022-12-05T01:14:48.791Z,7.13
2022-12-05T01:15:51.313Z,7.40
2022-12-05T01:16:55.640Z,7.47
2022-12-05T01:17:57.798Z,7.40
2022-12-05T01:19:01.649Z,8.00
2022-12-05T01:20:04.202Z,7.28
2022-12-05T01:21:07.335Z,7.25
2022-12-05T01:22:09.493Z,7.43
2022-12-05T01:23:12.114Z,7.78
2022-12-05T01:24:15.940Z,7.40
2022-12-05T01:25:18.056Z,7.75
2022-12-05T01:26:22.643Z,7.85
2022-12-05T01:27:24.754Z,7.95
2022-12-05T01:28:26.935Z,8.07
2022-12-05T01:29:29.306Z,7.68
2022-12-05T01:30:31.444Z,7.97
2022-12-05T01:31:37.795Z,7.63
2022-12-05T01:32:40.008Z,7.50
2022-12-05T01:33:42.183Z,8.60
2022-12-05T01:34:44.281Z,8.07
2022-12-05T01:35:46.635Z,8.07
2022-12-05T01:36:49.309Z,8.18
2022-12-05T01:37:52.086Z,8.05
2022-12-05T01:38:55.037Z,8.30
2022-12-05T01:39:57.387Z,7.65
2022-12-05T01:41:08.446Z,8.05
2022-12-05T01:42:12.776Z,7.60
2022-12-05T01:43:18.309Z,7.95
2022-12-05T01:44:23.470Z,8.43
2022-12-05T01:45:33.687Z,7.78
2022-12-05T01:46:44.693Z,8.27
2022-12-05T01:47:47.066Z,8.30
2022-12-05T01:48:50.333Z,8.43
2022-12-05T01:49:52.697Z,7.28
2022-12-05T01:50:55.229Z,8.32
2022-12-05T01:52:06.027Z,8.63
2022-12-05T01:53:08.270Z,8.25
2022-12-05T01:54:11.810Z,8.45
2022-12-05T01:55:17.530Z,8.43
2022-12-05T01:56:20.508Z,8.52
2022-12-05T01:57:23.821Z,8.75
2022-12-05T01:58:33.897Z,9.27
2022-12-05T01:59:41.586Z,8.73
2022-12-05T02:00:44.393Z,8.30
2022-12-05T02:01:46.827Z,7.90
2022-12-05T02:02:59.454Z,9.02
2022-12-05T02:04:02.752Z,8.38
2022-12-05T02:05:27.771Z,8.27
2022-12-05T02:06:31.965Z,8.07
2022-12-05T02:07:35.032Z,8.40
2022-12-05T02:08:38.743Z,7.85
2022-12-05T02:09:40.942Z,8.60
2022-12-05T02:10:52.446Z,7.97
2022-12-05T02:11:58.233Z,8.25
2022-12-05T02:13:23.044Z,8.38
2022-12-05T02:14:39.159Z,7.60
2022-12-05T02:15:53.920Z,7.95
2022-12-05T02:17:07.532Z,8.07
2022-12-05T02:18:52.932Z,7.65
2022-12-05T02:20:00.933Z,7.07
2022-12-05T02:21:12.436Z,8.38
2022-12-05T02:22:28.534Z,8.10
2022-12-05T02:23:54.759Z,8.43
2022-12-05T02:25:19.545Z,7.45
2022-12-05T02:27:02.682Z,8.68
2022-12-05T02:28:28.098Z,6.95
2022-12-05T02:29:48.218Z,7.97
2022-12-05T02:30:56.400Z,7.22
2022-12-05T02:32:15.228Z,8.10
2022-12-05T02:33:20.486Z,7.40
2022-12-05T02:34:25.691Z,7.10
2022-12-05T02:35:36.885Z,8.60
2022-12-05T02:36:50.681Z,8.07
2022-12-05T02:38:17.637Z,8.25
2022-12-05T02:39:52.292Z,8.32
2022-12-05T02:41:19.967Z,6.63
2022-12-05T02:42:43.710Z,7.78
2022-12-05T02:43:56.933Z,7.30
2022-12-05T02:45:07.297Z,8.15
2022-12-05T02:46:14.215Z,7.85
2022-12-05T02:47:21.422Z,8.52
2022-12-05T02:48:26.786Z,8.35
2022-12-05T02:49:34.967Z,8.18
2022-12-05T02:50:38.900Z,8.07
2022-12-05T02:51:48.227Z,7.95
2022-12-05T02:52:54.366Z,7.93
2022-12-05T02:54:01.273Z,7.95
2022-12-05T02:55:04.176Z,8.75
2022-12-05T02:56:07.581Z,8.10
2022-12-05T02:57:11.743Z,8.13
2022-12-05T02:58:23.291Z,8.60
2022-12-05T02:59:25.470Z,7.65
2022-12-05T03:00:27.598Z,8.05
2022-12-05T03:01:32.505Z,8.45
2022-12-05T03:02:35.300Z,8.10
2022-12-05T03:03:37.897Z,8.25
2022-12-05T03:04:40.194Z,8.95
2022-12-05T03:06:21.599Z,8.05
2022-12-05T03:07:25.860Z,7.43
2022-12-05T03:08:34.983Z,8.30
2022-12-05T03:09:56.124Z,8.02
2022-12-05T03:11:00.872Z,8.70
2022-12-05T03:12:15.247Z,8.68
2022-12-05T03:13:30.650Z,8.13
2022-12-05T03:14:38.996Z,7.88
2022-12-05T03:15:56.415Z,8.82
2022-12-05T03:17:03.276Z,8.07
2022-12-05T03:18:14.141Z,7.80
2022-12-05T03:19:27.057Z,7.95
2022-12-05T03:20:45.060Z,8.10
2022-12-05T03:22:13.992Z,8.45
2022-12-05T03:23:25.036Z,7.97
2022-12-05T03:24:28.065Z,8.30
2022-12-05T03:25:50.713Z,8.13
2022-12-05T03:27:34.893Z,8.30
2022-12-05T03:28:46.776Z,8.15
2022-12-05T03:29:51.600Z,8.50
2022-12-05T03:30:56.992Z,8.50
2022-12-05T03:31:59.105Z,8.48
2022-12-05T03:33:23.507Z,8.07
2022-12-05T03:34:52.896Z,8.02
2022-12-05T03:36:18.272Z,7.75
2022-12-05T03:37:38.842Z,7.78
2022-12-05T03:38:54.391Z,8.30
2022-12-05T03:40:08.538Z,8.52
2022-12-05T03:41:35.449Z,7.85
2022-12-05T03:42:46.952Z,7.75
2022-12-05T03:43:51.873Z,7.93
2022-12-05T03:45:05.229Z,8.73
2022-12-05T03:46:18.633Z,8.40
2022-12-05T03:47:47.928Z,8.02
2022-12-05T03:49:13.414Z,7.35
2022-12-05T03:50:25.899Z,8.20
2022-12-05T03:51:46.097Z,7.90
2022-12-05T03:53:18.572Z,8.40
2022-12-05T03:54:24.421Z,7.88
2022-12-05T03:55:29.598Z,7.82
2022-12-05T03:56:54.539Z,8.23
2022-12-05T03:58:01.426Z,7.28
2022-12-05T03:59:19.975Z,7.82
2022-12-05T04:00:24.274Z,7.97
2022-12-05T04:01:30.562Z,7.90
2022-12-05T04:02:45.512Z,8.80
2022-12-05T04:03:54.556Z,7.63
2022-12-05T04:05:09.921Z,7.80
2022-12-05T04:06:19.499Z,8.30
2022-12-05T04:07:22.968Z,7.70
2022-12-05T04:08:43.122Z,8.07
2022-12-05T04:09:50.142Z,8.25
2022-12-05T04:10:56.817Z,9.00
2022-12-05T04:12:06.194Z,8.95
2022-12-05T04:13:17.810Z,8.57
2022-12-05T04:14:28.232Z,8.00
2022-12-05T04:15:52.770Z,8.18
2022-12-05T04:17:03.236Z,8.23
2022-12-05T04:18:07.165Z,9.30
2022-12-05T04:19:15.045Z,7.93
2022-12-05T04:20:50.395Z,7.85
2022-12-05T04:21:56.005Z,7.32
2022-12-05T04:22:58.467Z,8.23
2022-12-05T04:24:19.331Z,8.10
2022-12-05T04:25:35.236Z,7.78
2022-12-05T04:26:42.572Z,8.63
2022-12-05T04:28:21.933Z,8.15
2022-12-05T04:29:32.637Z,7.93
2022-12-05T04:30:54.819Z,8.13
2022-12-05T04:32:04.047Z,7.78
2022-12-05T04:33:15.148Z,11.60
2022-12-05T04:34:19.293Z,14.07
2022-12-05T04:35:35.725Z,16.52
2022-12-05T04:36:59.800Z,15.88
2022-12-05T04:38:21.543Z,13.73
2022-12-05T04:39:30.014Z,10.70
2022-12-05T04:40:40.733Z,9.73
2022-12-05T04:41:51.963Z,8.77
2022-12-05T04:42:56.604Z,9.07
2022-12-05T04:44:05.182Z,7.68
2022-12-05T04:45:10.161Z,7.60
2022-12-05T04:46:16.387Z,7.75
2022-12-05T04:47:23.493Z,7.65
2022-12-05T04:48:27.977Z,8.25
2022-12-05T04:49:33.073Z,8.00
2022-12-05T04:50:36.961Z,8.50
2022-12-05T04:51:40.037Z,8.02
2022-12-05T04:52:47.442Z,8.90
2022-12-05T04:53:58.786Z,7.78
2022-12-05T04:55:09.499Z,7.72
2022-12-05T04:56:16.548Z,7.90
2022-12-05T04:57:31.020Z,7.07
2022-12-05T04:58:33.426Z,7.85
2022-12-05T04:59:35.956Z,7.97
2022-12-05T05:01:03.757Z,7.72
2022-12-05T05:02:09.562Z,7.25
2022-12-05T05:03:26.956Z,7.90
2022-12-05T05:04:38.068Z,8.13
2022-12-05T05:05:44.972Z,7.53
2022-12-05T05:06:47.190Z,8.50
2022-12-05T05:07:51.703Z,9.38
2022-12-05T05:08:56.904Z,8.40
2022-12-05T05:09:59.351Z,8.48
2022-12-05T05:11:21.248Z,8.60
2022-12-05T05:12:23.405Z,8.30
2022-12-05T05:13:25.656Z,8.45
2022-12-05T05:14:27.827Z,8.65
2022-12-05T05:15:30.091Z,8.45
2022-12-05T05:16:35.528Z,7.60
2022-12-05T05:17:37.762Z,7.90
2022-12-05T05:18:39.919Z,8.30
2022-12-05T05:19:42.101Z,8.48
2022-12-05T05:20:44.462Z,8.20
2022-12-05T05:21:46.644Z,8.45
2022-12-05T05:22:49.776Z,7.82
2022-12-05T05:23:52.718Z,8.35
2022-12-05T05:24:54.850Z,8.98
2022-12-05T05:25:57.456Z,7.95
2022-12-05T05:26:59.618Z,8.25
2022-12-05T05:28:01.792Z,8.30
2022-12-05T05:29:04.768Z,8.20
2022-12-05T05:30:07.565Z,8.25
2022-12-05T05:31:10.137Z,8.43
2022-12-05T05:32:12.308Z,7.68
2022-12-05T05:33:14.606Z,7.15
2022-12-05T05:34:16.737Z,7.63
2022-12-05T05:35:19.255Z,8.13
2022-12-05T05:36:23.608Z,8.38
2022-12-05T05:37:25.744Z,8.15
2022-12-05T05:38:28.413Z,8.63
2022-12-05T05:39:30.602Z,7.65
2022-12-05T05:40:37.044Z,7.68
2022-12-05T05:41:39.340Z,7.45
2022-12-05T05:42:46.750Z,8.13
2022-12-05T05:43:50.266Z,7.40
2022-12-05T05:44:52.402Z,8.23
2022-12-05T05:45:54.495Z,8.38
2022-12-05T05:46:56.779Z,7.97
2022-12-05T05:47:59.020Z,8.65
2022-12-05T05:49:01.793Z,8.43
2022-12-05T05:50:04.586Z,8.27
2022-12-05T05:51:08.685Z,8.50
2022-12-05T05:52:10.884Z,8.13
2022-12-05T05:53:13.075Z,7.95
2022-12-05T05:54:15.241Z,8.23
2022-12-05T05:55:17.488Z,7.60
2022-12-05T05:56:21.986Z,8.15
2022-12-05T05:57:24.361Z,8.07
2022-12-05T05:58:26.444Z,7.70
2022-12-05T05:59:28.579Z,7.28
2022-12-05T06:00:30.702Z,7.72
2022-12-05T06:01:32.881Z,7.32
2022-12-05T06:02:36.351Z,7.35
2022-12-05T06:03:39.387Z,8.35
2022-12-05T06:04:41.668Z,7.60
2022-12-05T06:05:47.494Z,7.80
2022-12-05T06:06:52.211Z,8.15
2022-12-05T06:07:54.409Z,7.70
2022-12-05T06:08:56.905Z,7.40
2022-12-05T06:09:59.242Z,8.00
2022-12-05T06:11:06.397Z,7.93
2022-12-05T06:12:08.561Z,8.45
2022-12-05T06:13:10.665Z,8.57
2022-12-05T06:14:12.816Z,8.43
2022-12-05T06:15:15.057Z,8.57
2022-12-05T06:16:18.824Z,9.02
2022-12-05T06:17:21.128Z,9.02
2022-12-05T06:18:23.340Z,8.82
2022-12-05T06:19:25.525Z,8.23
2022-12-05T06:20:27.803Z,8.35
2022-12-05T06:21:29.961Z,7.82
2022-12-05T06:22:32.353Z,7.95
2022-12-05T06:23:35.965Z,7.93
2022-12-05T06:24:38.550Z,8.13
2022-12-05T06:25:40.647Z,8.25
2022-12-05T06:26:43.481Z,7.35
2022-12-05T06:27:45.597Z,7.43
2022-12-05T06:28:48.527Z,7.05
2022-12-05T06:29:50.699Z,7.45
2022-12-05T06:30:53.609Z,8.02
2022-12-05T06:31:55.810Z,8.35
2022-12-05T06:32:57.933Z,9.15
2022-12-05T06:34:02.678Z,10.25
2022-12-05T06:35:15.046Z,8.52
2022-12-05T06:36:20.182Z,8.65
2022-12-05T06:37:22.613Z,8.75
2022-12-05T06:38:24.724Z,8.35
2022-12-05T06:39:26.911Z,8.65
2022-12-05T06:40:29.053Z,8.00
2022-12-05T06:41:31.424Z,8.73
2022-12-05T06:42:33.590Z,8.32
2022-12-05T06:43:35.673Z,9.18
2022-12-05T06:44:37.847Z,8.35
2022-12-05T06:45:40.391Z,8.50
2022-12-05T06:46:42.549Z,8.38
2022-12-05T06:47:44.771Z,8.55
2022-12-05T06:48:47.014Z,8.30
2022-12-05T06:49:49.173Z,8.07
2022-12-05T06:50:52.789Z,8.80
2022-12-05T06:51:55.186Z,9.05
2022-12-05T06:52:57.398Z,8.95
2022-12-05T06:53:59.491Z,9.27
2022-12-05T06:55:01.703Z,9.30
2022-12-05T06:56:07.577Z,9.55
2022-12-05T06:57:10.026Z,9.85
2022-12-05T06:58:12.145Z,9.20
2022-12-05T06:59:14.287Z,8.70
2022-12-05T07:00:35.269Z,7.85
2022-12-05T07:01:43.896Z,7.18
2022-12-05T07:02:46.298Z,7.93
2022-12-05T07:03:51.747Z,8.05
2022-12-05T07:04:53.914Z,7.55
2022-12-05T07:05:56.036Z,8.20
2022-12-05T07:06:58.543Z,7.60
2022-12-05T07:08:00.733Z,7.75
2022-12-05T07:09:03.641Z,9.20
2022-12-05T07:10:06.857Z,8.27
2022-12-05T07:11:09.072Z,8.13
2022-12-05T07:12:14.945Z,7.80
2022-12-05T07:13:17.036Z,9.40
2022-12-05T07:14:45.390Z,8.43
2022-12-05T07:15:41.438Z,8.70
2022-12-05T07:16:43.736Z,9.70
2022-12-05T07:17:45.872Z,8.18
2022-12-05T07:18:47.964Z,8.38
2022-12-05T07:19:51.399Z,8.10
2022-12-05T07:21:14.318Z,8.35
2022-12-05T07:22:18.365Z,7.63
2022-12-05T07:23:20.457Z,7.78
2022-12-05T07:24:22.576Z,7.85
2022-12-05T07:25:24.884Z,7.60
2022-12-05T07:26:27.198Z,8.32
2022-12-05T07:27:29.352Z,8.88
2022-12-05T07:28:31.473Z,8.70
2022-12-05T07:29:33.660Z,7.97
2022-12-05T07:30:35.804Z,9.20
2022-12-05T07:31:38.029Z,8.00
2022-12-05T07:32:40.185Z,11.70
2022-12-05T07:33:42.675Z,12.85
2022-12-05T07:34:44.770Z,16.67
2022-12-05T07:35:46.903Z,16.20
2022-12-05T07:36:49.043Z,13.77
2022-12-05T07:37:51.206Z,10.13
2022-12-05T07:38:58.639Z,9.57
2022-12-05T07:40:01.175Z,8.60
2022-12-05T07:41:13.060Z,8.10
2022-12-05T07:42:15.737Z,7.97
2022-12-05T07:43:17.852Z,7.68
2022-12-05T07:44:20.015Z,7.95
2022-12-05T07:45:22.522Z,7.95
2022-12-05T07:46:26.781Z,8.15
2022-12-05T07:47:31.145Z,8.05
2022-12-05T07:48:33.668Z,8.13
2022-12-05T07:49:36.837Z,7.85
2022-12-05T07:50:39.069Z,8.07
2022-12-05T07:51:41.696Z,8.07
2022-12-05T07:52:43.899Z,8.85
2022-12-05T07:53:46.658Z,8.60
2022-12-05T07:54:48.798Z,8.23
2022-12-05T07:55:51.311Z,7.90
2022-12-05T07:56:53.501Z,8.50
2022-12-05T07:57:55.708Z,8.50
2022-12-05T07:58:57.936Z,7.88
2022-12-05T08:00:00.301Z,8.02
2022-12-05T08:01:11.955Z,7.65
2022-12-05T08:02:14.315Z,7.65
2022-12-05T08:03:16.532Z,8.15
2022-12-05T08:04:18.791Z,6.85
2022-12-05T08:05:20.942Z,7.68
2022-12-05T08:06:29.127Z,8.10
2022-12-05T08:07:31.307Z,7.53
2022-12-05T08:08:33.550Z,8.25
2022-12-05T08:09:35.689Z,7.53
2022-12-05T08:10:37.953Z,8.32
2022-12-05T08:11:40.370Z,8.30
2022-12-05T08:12:42.535Z,7.85
2022-12-05T08:13:45.143Z,8.23
2022-12-05T08:14:47.275Z,8.10
2022-12-05T08:15:49.491Z,7.68
2022-12-05T08:16:51.693Z,7.75
2022-12-05T08:17:53.879Z,8.73
2022-12-05T08:18:57.096Z,8.27
2022-12-05T08:19:59.500Z,8.18
2022-12-05T08:21:03.772Z,7.93
2022-12-05T08:22:05.928Z,7.95
2022-12-05T08:23:08.027Z,8.48
2022-12-05T08:24:10.783Z,8.10
2022-12-05T08:25:12.932Z,7.78
2022-12-05T08:26:20.405Z,8.48
2022-12-05T08:27:22.542Z,8.45
2022-12-05T08:28:24.642Z,8.45
2022-12-05T08:29:26.912Z,7.88
2022-12-05T08:30:29.175Z,7.93
2022-12-05T08:31:33.514Z,8.60
2022-12-05T08:32:35.612Z,8.45
2022-12-05T08:33:38.525Z,9.15
2022-12-05T08:34:40.626Z,9.10
2022-12-05T08:35:42.693Z,8.07
2022-12-05T08:36:45.949Z,8.50
2022-12-05T08:37:48.099Z,8.23
2022-12-05T08:38:50.279Z,8.23
2022-12-05T08:39:52.419Z,9.07
2022-12-05T08:40:54.636Z,8.07
2022-12-05T08:41:56.797Z,8.30
2022-12-05T08:42:58.918Z,7.85
2022-12-05T08:44:09.924Z,8.23
2022-12-05T08:45:12.091Z,7.50
2022-12-05T08:46:14.369Z,8.23
2022-12-05T08:47:17.382Z,8.18
2022-12-05T08:48:22.437Z,7.93
2022-12-05T08:49:28.352Z,7.82
2022-12-05T08:50:30.684Z,7.65
2022-12-05T08:51:32.937Z,8.13
2022-12-05T08:52:34.663Z,7.32
2022-12-05T08:53:43.814Z,9.00
2022-12-05T08:54:46.283Z,8.23
2022-12-05T08:55:48.126Z,8.30
2022-12-05T08:56:53.490Z,8.23
2022-12-05T08:57:55.196Z,8.70
2022-12-05T08:59:03.175Z,8.60
2022-12-05T09:00:09.029Z,8.02
2022-12-05T09:01:12.176Z,7.43
2022-12-05T09:02:14.166Z,7.90
2022-12-05T09:03:15.993Z,8.98
2022-12-05T09:04:17.843Z,9.63
2022-12-05T09:05:28.312Z,8.88
2022-12-05T09:06:32.015Z,8.85
2022-12-05T09:07:33.846Z,9.60
2022-12-05T09:08:35.979Z,8.25
2022-12-05T09:09:37.922Z,8.13
2022-12-05T09:10:39.707Z,7.90
2022-12-05T09:11:48.747Z,7.60
2022-12-05T09:12:51.268Z,8.15
2022-12-05T09:13:55.915Z,7.50
2022-12-05T09:14:57.948Z,8.20
2022-12-05T09:16:05.837Z,7.82
2022-12-05T09:17:08.294Z,7.60
2022-12-05T09:18:10.401Z,8.48
2022-12-05T09:19:17.753Z,7.82
2022-12-05T09:20:19.902Z,8.02
2022-12-05T09:21:28.920Z,7.80
2022-12-05T09:22:30.702Z,7.43
2022-12-05T09:23:32.553Z,8.55
2022-12-05T09:24:34.936Z,7.70
2022-12-05T09:25:36.646Z,7.45
2022-12-05T09:26:39.582Z,7.60
2022-12-05T09:27:41.373Z,7.82
2022-12-05T09:28:44.271Z,7.55
2022-12-05T09:29:46.126Z,8.60
2022-12-05T09:31:01.857Z,7.88
2022-12-05T09:32:03.898Z,8.30
2022-12-05T09:33:05.683Z,7.80
2022-12-05T09:34:07.436Z,8.18
2022-12-05T09:35:09.582Z,8.13
2022-12-05T09:36:24.201Z,8.25
2022-12-05T09:37:41.153Z,7.47
2022-12-05T09:38:43.401Z,8.10
2022-12-05T09:39:45.415Z,8.00
2022-12-05T09:41:05.904Z,8.23
2022-12-05T09:42:18.131Z,7.50
2022-12-05T09:43:32.536Z,7.63
2022-12-05T09:45:25.800Z,7.57
2022-12-05T09:46:59.106Z,7.30
2022-12-05T09:48:23.374Z,7.25
2022-12-05T09:49:26.878Z,7.45
2022-12-05T09:50:40.450Z,7.78
2022-12-05T09:51:49.657Z,7.75
2022-12-05T09:53:09.276Z,7.47
2022-12-05T09:54:13.434Z,7.40
2022-12-05T09:55:19.677Z,7.68
2022-12-05T09:56:30.703Z,8.23
2022-12-05T09:57:44.174Z,7.78
2022-12-05T09:58:52.815Z,8.05
2022-12-05T09:59:54.729Z,7.60
2022-12-05T10:01:31.007Z,7.35
2022-12-05T10:03:21.816Z,7.13
2022-12-05T10:04:35.261Z,7.50
2022-12-05T10:05:50.982Z,10.38
2022-12-05T10:07:30.245Z,8.90
2022-12-05T10:09:09.972Z,7.93
2022-12-05T10:10:53.581Z,6.82
2022-12-05T10:12:10.778Z,7.13
2022-12-05T10:14:02.474Z,7.70
2022-12-05T10:15:26.568Z,7.63
2022-12-05T10:16:46.007Z,7.95
2022-12-05T10:18:31.555Z,8.38
2022-12-05T10:19:42.508Z,7.80
2022-12-05T10:20:56.885Z,7.78
2022-12-05T10:22:17.373Z,7.75
2022-12-05T10:24:00.133Z,7.82
2022-12-05T10:25:01.563Z,7.93
2022-12-05T10:26:09.456Z,8.25
2022-12-05T10:27:23.365Z,7.70
2022-12-05T10:28:52.455Z,8.15
2022-12-05T10:30:14.522Z,7.97
2022-12-05T10:31:22.794Z,7.28
2022-12-05T10:32:36.920Z,8.55
2022-12-05T10:33:49.237Z,8.07
2022-12-05T10:34:58.401Z,8.40
2022-12-05T10:36:00.424Z,8.65
2022-12-05T10:37:21.877Z,7.35
2022-12-05T10:38:31.590Z,8.07
2022-12-05T10:39:33.536Z,7.95
2022-12-05T10:40:46.394Z,7.20
2022-12-05T10:41:48.297Z,7.95
2022-12-05T10:42:50.628Z,7.85
2022-12-05T10:43:53.131Z,7.15
2022-12-05T10:45:08.713Z,8.57
2022-12-05T10:46:17.024Z,7.78
2022-12-05T10:47:19.315Z,8.20
2022-12-05T10:48:22.995Z,7.78
2022-12-05T10:49:27.298Z,8.13
2022-12-05T10:50:37.370Z,7.88
2022-12-05T10:51:40.020Z,7.45
2022-12-05T10:52:41.907Z,7.15
2022-12-05T10:53:49.669Z,8.05
2022-12-05T10:55:05.417Z,8.57
2022-12-05T10:56:38.827Z,8.27
2022-12-05T10:57:40.575Z,7.25
2022-12-05T10:58:58.471Z,7.63
2022-12-05T11:00:15.559Z,7.55
2022-12-05T11:01:18.216Z,7.97
2022-12-05T11:02:31.367Z,8.00
2022-12-05T11:03:42.408Z,7.88
2022-12-05T11:04:45.616Z,7.85
2022-12-05T11:05:51.206Z,8.15
2022-12-05T11:07:25.199Z,8.65
2022-12-05T11:09:03.011Z,8.23
2022-12-05T11:09:57.538Z,7.65
2022-12-05T11:11:04.780Z,7.82
2022-12-05T11:12:09.219Z,8.65
2022-12-05T11:13:26.047Z,8.18
2022-12-05T11:14:29.819Z,8.73
2022-12-05T11:15:31.997Z,8.85
2022-12-05T11:16:39.023Z,8.45
2022-12-05T11:17:40.965Z,8.90
2022-12-05T11:18:44.701Z,8.43
2022-12-05T11:19:46.448Z,8.38
2022-12-05T11:20:48.186Z,9.23
2022-12-05T11:21:51.373Z,8.65
2022-12-05T11:22:56.499Z,9.07
2022-12-05T11:24:35.514Z,8.48
2022-12-05T11:25:37.712Z,8.43
2022-12-05T11:26:39.445Z,8.25
2022-12-05T11:27:41.614Z,8.70
2022-12-05T11:28:43.406Z,8.68
2022-12-05T11:30:04.498Z,8.65
2022-12-05T11:31:28.018Z,8.93
2022-12-05T11:32:33.061Z,8.77
2022-12-05T11:33:36.537Z,8.75
2022-12-05T11:34:48.736Z,9.27
2022-12-05T11:35:59.081Z,8.95
2022-12-05T11:37:18.222Z,8.07
2022-12-05T11:38:27.179Z,8.25
2022-12-05T11:39:29.018Z,9.18
2022-12-05T11:40:38.654Z,8.90
2022-12-05T11:42:11.402Z,8.82
2022-12-05T11:43:46.523Z,8.50
2022-12-05T11:45:13.185Z,8.50
2022-12-05T11:46:48.414Z,9.30
2022-12-05T11:48:11.082Z,8.35
2022-12-05T11:49:29.439Z,8.45
2022-12-05T11:50:45.939Z,8.25
2022-12-05T11:52:39.046Z,8.77
2022-12-05T11:54:09.352Z,8.40
2022-12-05T11:55:42.749Z,8.48
2022-12-05T11:57:33.734Z,8.43
2022-12-05T11:59:24.713Z,8.77
2022-12-05T12:01:03.907Z,8.68
2022-12-05T12:02:31.000Z,8.02
2022-12-05T12:04:00.088Z,8.35
2022-12-05T12:05:44.867Z,8.32
2022-12-05T12:07:27.267Z,8.90
2022-12-05T12:09:07.356Z,9.63
2022-12-05T12:10:29.476Z,9.63
2022-12-05T12:11:47.439Z,8.95
2022-12-05T12:13:19.406Z,9.25
2022-12-05T12:15:12.767Z,9.25
2022-12-05T12:16:39.606Z,8.13
2022-12-05T12:17:58.429Z,8.18
2022-12-05T12:19:32.429Z,8.63
2022-12-05T12:20:45.974Z,8.32
2022-12-05T12:22:12.153Z,8.80
2022-12-05T12:23:22.690Z,9.13
2022-12-05T12:24:33.198Z,9.35
2022-12-05T12:26:06.891Z,8.25
2022-12-05T12:27:43.920Z,8.23
2022-12-05T12:28:57.443Z,7.43
2022-12-05T12:30:11.020Z,7.63
2022-12-05T12:31:20.835Z,8.15
2022-12-05T12:33:10.751Z,7.43
2022-12-05T12:34:52.991Z,7.53
2022-12-05T12:36:29.827Z,7.28
2022-12-05T12:38:00.499Z,7.82
2022-12-05T12:39:26.227Z,7.50
2022-12-05T12:40:54.943Z,8.00
2022-12-05T12:42:23.985Z,8.07
2022-12-05T12:43:54.275Z,7.47
2022-12-05T12:45:31.742Z,7.80
2022-12-05T12:46:59.658Z,7.63
2022-12-05T12:48:37.382Z,8.02
2022-12-05T12:50:20.782Z,7.72
2022-12-05T12:51:22.635Z,7.97
2022-12-05T12:52:33.394Z,8.07
2022-12-05T12:54:04.433Z,8.07
2022-12-05T12:55:24.353Z,7.88
2022-12-05T12:56:28.818Z,7.78
2022-12-05T12:58:12.700Z,7.82
2022-12-05T12:59:32.495Z,7.55
2022-12-05T13:01:05.637Z,7.90
2022-12-05T13:02:39.236Z,7.35
2022-12-05T13:03:52.031Z,7.68
2022-12-05T13:05:38.985Z,7.88
2022-12-05T13:06:50.014Z,7.43
2022-12-05T13:08:02.434Z,7.80
2022-12-05T13:09:16.325Z,8.45
2022-12-05T13:10:35.757Z,8.48
2022-12-05T13:11:45.193Z,7.90
2022-12-05T13:12:49.113Z,8.32
2022-12-05T13:13:55.807Z,7.88
2022-12-05T13:15:35.722Z,8.00
2022-12-05T13:16:46.087Z,7.90
2022-12-05T13:17:49.333Z,8.63
2022-12-05T13:18:51.093Z,8.13
2022-12-05T13:19:53.991Z,7.93
2022-12-05T13:21:01.124Z,8.40
2022-12-05T13:22:06.008Z,8.52
2022-12-05T13:23:12.622Z,8.35
2022-12-05T13:24:19.306Z,8.45
2022-12-05T13:25:29.496Z,8.65
2022-12-05T13:26:36.721Z,8.60
2022-12-05T13:27:38.532Z,8.50
2022-12-05T13:28:55.576Z,8.77
2022-12-05T13:30:02.408Z,8.02
2022-12-05T13:31:06.364Z,8.68
2022-12-05T13:32:38.438Z,8.02
2022-12-05T13:33:49.991Z,7.95
2022-12-05T13:34:52.708Z,8.07
2022-12-05T13:36:25.456Z,8.82
2022-12-05T13:37:49.953Z,7.60
2022-12-05T13:39:22.081Z,7.80
2022-12-05T13:40:44.662Z,7.15
2022-12-05T13:42:15.097Z,7.07
2022-12-05T13:43:23.032Z,7.80
2022-12-05T13:44:57.713Z,7.93
2022-12-05T13:46:13.649Z,8.13
2022-12-05T13:48:01.849Z,7.30
2022-12-05T13:49:29.177Z,6.85
2022-12-05T13:50:36.378Z,6.70
2022-12-05T13:51:44.386Z,7.80
2022-12-05T13:52:59.898Z,7.82
2022-12-05T13:54:28.340Z,7.05
2022-12-05T13:55:56.512Z,7.13
2022-12-05T13:57:02.401Z,7.00
2022-12-05T13:58:24.110Z,7.40
2022-12-05T14:00:23.874Z,7.20
2022-12-05T14:01:28.325Z,7.43
2022-12-05T14:02:42.383Z,7.88
2022-12-05T14:04:21.399Z,7.30
2022-12-05T14:05:25.475Z,7.72
2022-12-05T14:06:38.893Z,7.07
2022-12-05T14:07:46.005Z,8.85
2022-12-05T14:08:54.127Z,8.57
2022-12-05T14:09:57.221Z,8.00
2022-12-05T14:10:59.164Z,8.00
2022-12-05T14:12:12.934Z,8.25
2022-12-05T14:13:17.856Z,7.93
2022-12-05T14:14:56.999Z,7.90
2022-12-05T14:16:23.365Z,6.90
2022-12-05T14:17:30.032Z,7.43
2022-12-05T14:19:01.522Z,7.47
2022-12-05T14:20:56.063Z,6.47
2022-12-05T14:22:33.988Z,6.80
2022-12-05T14:24:01.429Z,6.38
2022-12-05T14:25:30.817Z,7.38
2022-12-05T14:26:51.644Z,8.05
2022-12-05T14:28:18.331Z,7.88
2022-12-05T14:29:38.069Z,6.43
2022-12-05T14:31:06.008Z,7.35
2022-12-05T14:32:16.986Z,6.78
2022-12-05T14:33:23.135Z,6.72
2022-12-05T14:34:28.858Z,8.10
2022-12-05T14:35:42.338Z,8.35
2022-12-05T14:37:06.990Z,7.22
2022-12-05T14:38:28.803Z,7.85
2022-12-05T14:39:38.096Z,8.02
2022-12-05T14:40:43.763Z,7.85
2022-12-05T14:41:47.440Z,7.55
2022-12-05T14:43:07.413Z,7.07
2022-12-05T14:44:19.459Z,7.50
2022-12-05T14:45:32.483Z,7.63
2022-12-05T14:46:34.559Z,7.53
2022-12-05T14:47:36.536Z,8.18
2022-12-05T14:48:48.065Z,9.13
2022-12-05T14:50:02.115Z,9.15
2022-12-05T14:51:46.034Z,9.13
2022-12-05T14:53:22.005Z,7.97
2022-12-05T14:54:25.763Z,8.43
2022-12-05T14:55:28.983Z,7.85
2022-12-05T14:56:40.143Z,8.02
2022-12-05T14:57:49.020Z,8.13
2022-12-05T14:59:26.287Z,8.07
2022-12-05T15:00:28.206Z,7.57
2022-12-05T15:01:51.758Z,7.88
2022-12-05T15:02:55.579Z,7.40
2022-12-05T15:04:04.386Z,7.82
2022-12-05T15:05:31.313Z,8.30
2022-12-05T15:06:44.006Z,7.95
2022-12-05T15:07:47.968Z,7.88
2022-12-05T15:08:55.302Z,8.52
2022-12-05T15:10:04.976Z,9.05
2022-12-05T15:11:06.779Z,9.20
2022-12-05T15:12:19.387Z,9.45
2022-12-05T15:13:27.741Z,8.45
2022-12-05T15:14:40.033Z,9.15
2022-12-05T15:15:51.777Z,7.82
2022-12-05T15:16:56.257Z,8.27
2022-12-05T15:18:09.301Z,8.38
2022-12-05T15:19:22.130Z,8.63
2022-12-05T15:20:58.326Z,8.23
2022-12-05T15:22:06.572Z,7.82
2022-12-05T15:23:48.177Z,8.02
2022-12-05T15:24:49.958Z,7.82
2022-12-05T15:25:57.240Z,8.77
2022-12-05T15:27:05.256Z,8.30
2022-12-05T15:28:19.857Z,8.68
2022-12-05T15:29:25.470Z,8.88
2022-12-05T15:30:30.359Z,8.38
2022-12-05T15:31:44.190Z,8.50
2022-12-05T15:32:46.100Z,8.25
2022-12-05T15:34:00.529Z,8.27